Anangel Excellence — 9HA4265 — position and weather

sailwx.info

Track history (hours):
 
Tides and Currents Weather Stations Pressure Air Temp Water Temp Dewpoint Dewpoint Depression Visibility Wind Speed Wind Dir Waves Ship Positions

Anangel Excellence

Last reported at 2018-Apr-17 22:10 UTC. Time now 2018-Apr-19 23:23 UTC.
Position N 01°15' E 104°02'.

Length 292 m; draft 18.8 m.

Type: Cargo ship. MMSI: 249495000.

Date/timePositionNaut miles runAvg speedWind from/ knotsBaromVisibWave heightAir tempDewpointWater temp
2018-Apr-17 22:10N 01°15' E 104°02'1 6.9
2018-Apr-17 21:58N 01°16' E 104°00'1 0.5
2018-Apr-17 20:20N 01°17' E 104°00'0 0.0
2018-Apr-17 19:44N 01°17' E 104°00'0 0.0
2018-Apr-17 19:29N 01°17' E 104°00'0 0.1
2018-Apr-17 18:47N 01°17' E 104°00'4 0.3
2018-Apr-17 05:28N 01°15' E 103°57'4 7.8
2018-Apr-17 04:59N 01°13' E 103°54'510.0
2018-Apr-17 04:30N 01°11' E 103°49'5 9.9
2018-Apr-17 04:00N 01°08' E 103°45'510.0
2018-Apr-17 03:30N 01°05' E 103°42'5 9.9
2018-Apr-17 02:59N 01°04' E 103°37'611.6
2018-Apr-17 02:30N 01°07' E 103°32'611.4
2018-Apr-17 01:57N 01°11' E 103°27'511.5
2018-Apr-17 01:29N 01°14' E 103°22'611.3
2018-Apr-17 00:58N 01°18' E 103°18'  
Track history (hours):
 
Tides and Currents Weather Stations Pressure Air Temp Water Temp Dewpoint Dewpoint Depression Visibility Wind Speed Wind Dir Waves Ship Positions

Anangel Excellence

Last reported at 2018-Apr-17 22:10 UTC. Time now 2018-Apr-19 23:23 UTC.
Position N 01°15' E 104°02'.

Length 292 m; draft 18.8 m.

Type: Cargo ship. MMSI: 249495000.

Date/timePositionNaut miles runAvg speedWind from/ knotsBaromVisibWave heightAir tempDewpointWater temp
2018-Apr-17 22:10N 01°15' E 104°02'1 6.9
2018-Apr-17 21:58N 01°16' E 104°00'1 0.5
2018-Apr-17 20:20N 01°17' E 104°00'0 0.0
2018-Apr-17 19:44N 01°17' E 104°00'0 0.0
2018-Apr-17 19:29N 01°17' E 104°00'0 0.1
2018-Apr-17 18:47N 01°17' E 104°00'4 0.3
2018-Apr-17 05:28N 01°15' E 103°57'4 7.8
2018-Apr-17 04:59N 01°13' E 103°54'510.0
2018-Apr-17 04:30N 01°11' E 103°49'5 9.9
2018-Apr-17 04:00N 01°08' E 103°45'510.0
2018-Apr-17 03:30N 01°05' E 103°42'5 9.9
2018-Apr-17 02:59N 01°04' E 103°37'611.6
2018-Apr-17 02:30N 01°07' E 103°32'611.4
2018-Apr-17 01:57N 01°11' E 103°27'511.5
2018-Apr-17 01:29N 01°14' E 103°22'611.3
2018-Apr-17 00:58N 01°18' E 103°18'  

Dump ship's entire track history